Time;durP1;ratioP1;P1;durP2;ratioP2;P2;SDS_P1;SDS_P2;PMS_P1;PMS_P2;Temp;Humidity;BMP_temperature;BMP_pressure;BME280_temperature;BME280_humidity;BME280_pressure;Samples;Min_cycle;Max_cycle;Signal;HPM_P1;HPM_P2
2021/01/01 00:00:14;;;;;;;32.40;24.73;;;;;;;3.27;58.92;94428.38;5067419;28;20197;-75
2021/01/01 00:02:40;;;;;;;30.70;23.90;;;;;;;3.18;59.27;94427.56;5067498;28;20189;-76
2021/01/01 00:05:08;;;;;;;32.30;23.13;;;;;;;3.19;59.23;94428.34;5071382;28;20219;-77
2021/01/01 00:07:34;;;;;;;27.80;20.57;;;;;;;3.15;58.87;94432.97;5070959;28;20279;-76
2021/01/01 00:10:01;;;;;;;27.13;20.97;;;;;;;3.18;58.81;94435.19;5071629;28;20825;-74
2021/01/01 00:12:27;;;;;;;28.03;19.83;;;;;;;3.13;59.02;94428.03;5070675;28;20220;-76
2021/01/01 00:14:52;;;;;;;26.53;19.10;;;;;;;3.14;58.85;94431.38;5070841;28;20605;-76
2021/01/01 00:17:18;;;;;;;22.33;17.67;;;;;;;3.12;58.88;94430.72;5070888;28;20196;-75
2021/01/01 00:19:44;;;;;;;18.83;15.30;;;;;;;3.12;59.25;94438.34;5070761;28;20246;-76
2021/01/01 00:22:11;;;;;;;20.53;16.40;;;;;;;3.15;58.76;94440.59;5070616;28;20216;-76
2021/01/01 00:24:37;;;;;;;18.30;14.73;;;;;;;3.12;58.73;94433.28;5070072;28;20731;-76
2021/01/01 00:27:05;;;;;;;17.30;13.37;;;;;;;3.08;58.84;94432.00;5070628;28;20199;-76
2021/01/01 00:29:31;;;;;;;17.90;13.53;;;;;;;3.09;58.65;94428.50;5070779;28;20197;-76
2021/01/01 00:31:57;;;;;;;17.23;13.50;;;;;;;3.12;58.92;94431.53;5070512;28;20951;-75
2021/01/01 00:34:23;;;;;;;17.00;11.97;;;;;;;3.13;58.89;94437.41;5070551;28;20270;-75
2021/01/01 00:36:49;;;;;;;15.93;12.37;;;;;;;3.15;58.37;94437.25;5070574;28;20201;-75
2021/01/01 00:39:15;;;;;;;16.47;11.73;;;;;;;3.18;58.76;94444.56;5070493;28;20192;-75
2021/01/01 00:41:41;;;;;;;15.07;11.70;;;;;;;3.17;58.28;94446.31;5070385;28;20209;-75
2021/01/01 00:44:07;;;;;;;17.23;12.87;;;;;;;3.15;58.17;94437.25;5070103;28;20201;-76
2021/01/01 00:46:33;;;;;;;16.33;12.63;;;;;;;3.13;58.46;94437.41;5070841;28;20254;-75
2021/01/01 00:49:00;;;;;;;13.70;11.57;;;;;;;3.12;58.81;94435.81;5070311;28;20664;-75
2021/01/01 00:51:26;;;;;;;14.20;10.50;;;;;;;3.14;58.30;94439.00;5070253;28;20212;-77
2021/01/01 00:53:52;;;;;;;18.20;11.43;;;;;;;3.17;58.47;94440.44;5070315;28;20193;-75
2021/01/01 00:56:22;;;;;;;12.83;10.50;;;;;;;3.13;58.19;94438.19;5070552;28;20285;-75
2021/01/01 00:58:50;;;;;;;13.87;10.50;;;;;;;3.12;58.18;94436.63;5070126;28;20200;-74
2021/01/01 01:01:17;;;;;;;13.80;10.43;;;;;;;3.12;58.49;94426.44;5070332;28;20256;-75
2021/01/01 01:03:43;;;;;;;12.77;10.40;;;;;;;3.08;58.22;94417.53;5070384;28;20200;-76
2021/01/01 01:06:09;;;;;;;13.07;9.47;;;;;;;3.06;58.44;94426.31;5070184;28;20222;-76
2021/01/01 01:08:35;;;;;;;12.47;10.47;;;;;;;2.90;58.83;94418.66;5070061;28;20208;-76
2021/01/01 01:11:03;;;;;;;13.60;10.67;;;;;;;2.85;59.34;94424.22;5070091;28;20212;-75
2021/01/01 01:13:29;;;;;;;13.27;10.60;;;;;;;2.90;59.48;94421.97;5069786;28;20200;-76
2021/01/01 01:15:55;;;;;;;13.27;11.03;;;;;;;2.92;59.16;94421.81;5068926;28;20731;-75
2021/01/01 01:18:22;;;;;;;16.30;11.23;;;;;;;2.94;59.12;94427.56;5070139;28;20669;-74
2021/01/01 01:20:48;;;;;;;14.40;11.33;;;;;;;2.87;59.95;94434.25;5069848;28;20361;-75
2021/01/01 01:23:14;;;;;;;15.23;11.10;;;;;;;2.89;59.42;94430.56;5069614;28;20717;-76
2021/01/01 01:25:39;;;;;;;13.90;10.07;;;;;;;2.89;59.10;94430.56;5069815;28;20246;-76
2021/01/01 01:28:05;;;;;;;13.87;11.43;;;;;;;2.86;59.59;94417.41;5069629;28;20201;-76
2021/01/01 01:30:31;;;;;;;12.93;10.33;;;;;;;2.85;59.05;94411.53;5069583;28;20217;-75
2021/01/01 01:32:57;;;;;;;13.37;10.00;;;;;;;2.85;59.69;94418.34;5069719;28;20197;-75
2021/01/01 01:35:27;;;;;;;13.23;9.97;;;;;;;2.87;58.94;94429.16;5069399;28;20588;-76
2021/01/01 01:37:53;;;;;;;12.07;9.00;;;;;;;2.89;58.84;94428.03;5069950;28;20250;-76
2021/01/01 01:40:19;;;;;;;12.53;9.47;;;;;;;2.79;58.58;94422.31;5069437;28;20223;-76
2021/01/01 01:42:45;;;;;;;12.00;8.47;;;;;;;2.80;58.84;94423.09;5069292;28;20200;-74
2021/01/01 01:45:13;;;;;;;12.30;9.03;;;;;;;2.80;58.84;94418.81;5069576;28;20219;-75
2021/01/01 01:47:39;;;;;;;11.80;8.90;;;;;;;2.78;58.83;94416.44;5069326;28;20200;-75
2021/01/01 01:50:07;;;;;;;11.90;9.10;;;;;;;2.89;58.62;94414.50;5069548;28;20707;-75
2021/01/01 01:52:35;;;;;;;12.63;8.60;;;;;;;2.94;58.20;94407.22;5069327;28;20216;-76
2021/01/01 01:55:01;;;;;;;10.97;8.43;;;;;;;2.81;58.65;94406.91;5068367;28;20200;-76
2021/01/01 01:57:28;;;;;;;10.40;8.60;;;;;;;2.84;58.57;94409.94;5069770;28;20287;-74
2021/01/01 01:59:57;;;;;;;9.80;8.43;;;;;;;2.89;58.82;94415.31;5069448;28;20205;-76
2021/01/01 02:02:23;;;;;;;9.47;8.20;;;;;;;2.90;58.73;94411.03;5068810;28;20224;-75
2021/01/01 02:04:49;;;;;;;12.07;8.90;;;;;;;2.91;58.29;94410.88;5069298;28;20254;-75
2021/01/01 02:07:15;;;;;;;13.40;8.90;;;;;;;2.97;58.04;94414.53;5068741;28;20224;-74
2021/01/01 02:09:44;;;;;;;10.53;8.23;;;;;;;3.02;57.88;94420.72;5068945;28;20205;-75
2021/01/01 02:12:11;;;;;;;10.97;9.17;;;;;;;3.04;57.33;94413.75;5068546;28;20239;-74
2021/01/01 02:14:37;;;;;;;11.57;9.07;;;;;;;3.02;57.52;94418.19;5068778;28;20219;-76
2021/01/01 02:17:03;;;;;;;12.90;9.20;;;;;;;3.00;57.89;94407.38;5068577;28;20192;-74
2021/01/01 02:19:29;;;;;;;13.40;9.67;;;;;;;2.99;57.53;94410.09;5069117;28;20208;-76
2021/01/01 02:21:59;;;;;;;13.20;9.77;;;;;;;3.03;57.55;94411.38;5068523;28;20227;-75
2021/01/01 02:24:26;;;;;;;12.97;9.43;;;;;;;2.96;58.03;94413.72;5068251;28;20844;-75
2021/01/01 02:26:53;;;;;;;10.83;9.37;;;;;;;2.98;58.09;94414.38;5069318;28;20200;-76
2021/01/01 02:29:19;;;;;;;13.13;10.17;;;;;;;3.02;58.05;94423.28;5069232;28;20615;-75
2021/01/01 02:31:44;;;;;;;11.43;9.40;;;;;;;3.06;57.80;94416.13;5068217;28;20243;-75
2021/01/01 02:34:10;;;;;;;13.33;9.37;;;;;;;3.05;58.00;94415.34;5068354;28;20189;-74
2021/01/01 02:36:36;;;;;;;11.23;9.27;;;;;;;2.92;58.31;94417.53;5068708;28;20193;-75
2021/01/01 02:39:03;;;;;;;12.50;9.50;;;;;;;3.01;58.56;94416.59;5068143;28;20246;-74
2021/01/01 02:41:30;;;;;;;11.43;8.87;;;;;;;3.04;58.23;94415.50;5068126;28;20217;-75
2021/01/01 02:43:56;;;;;;;10.60;8.73;;;;;;;3.08;57.89;94411.66;5068215;28;20468;-75
2021/01/01 02:46:22;;;;;;;11.27;9.40;;;;;;;3.12;58.43;94408.63;5068436;28;20200;-75
2021/01/01 02:48:48;;;;;;;13.23;10.03;;;;;;;3.12;58.31;94403.56;5068109;28;20201;-75
2021/01/01 02:51:13;;;;;;;12.10;9.67;;;;;;;3.09;57.99;94400.53;5068740;28;20239;-75
2021/01/01 02:53:39;;;;;;;11.77;10.03;;;;;;;3.12;58.23;94403.56;5068104;28;20203;-76
2021/01/01 02:56:05;;;;;;;11.70;9.50;;;;;;;3.08;57.91;94407.38;5068192;28;20349;-75
2021/01/01 02:58:32;;;;;;;11.23;9.37;;;;;;;3.09;58.05;94403.06;5068310;28;20208;-76
2021/01/01 03:00:58;;;;;;;12.17;9.33;;;;;;;3.09;58.31;94408.97;5067735;28;20244;-75
2021/01/01 03:03:24;;;;;;;11.73;8.47;;;;;;;3.07;57.63;94405.81;5068394;28;20557;-75
2021/01/01 03:05:50;;;;;;;12.43;9.00;;;;;;;3.04;57.63;94398.50;5067872;28;20201;-75
2021/01/01 03:08:15;;;;;;;11.43;8.67;;;;;;;3.00;58.01;94402.31;5068520;28;20716;-74
2021/01/01 03:10:41;;;;;;;10.27;8.40;;;;;;;3.04;58.25;94401.03;5067507;28;20216;-73
2021/01/01 03:13:07;;;;;;;11.30;9.13;;;;;;;2.97;58.36;94405.16;5068218;28;20483;-75
2021/01/01 03:15:34;;;;;;;11.33;8.83;;;;;;;3.00;58.06;94396.41;5066468;28;20714;-74
2021/01/01 03:18:00;;;;;;;11.50;8.57;;;;;;;3.05;58.03;94394.19;5067742;28;20203;-75
2021/01/01 03:20:26;;;;;;;10.00;8.40;;;;;;;3.06;58.39;94406.75;5067813;28;20680;-74
2021/01/01 03:22:52;;;;;;;10.90;9.03;;;;;;;3.07;58.20;94407.56;5067731;28;20216;-74
2021/01/01 03:25:18;;;;;;;10.13;8.70;;;;;;;3.13;57.64;94410.22;5067599;28;20208;-76
2021/01/01 03:27:44;;;;;;;10.20;8.17;;;;;;;3.14;57.91;94413.56;5067906;28;20197;-76
2021/01/01 03:30:13;;;;;;;10.67;8.73;;;;;;;3.18;58.40;94407.22;5067754;28;20200;-75
2021/01/01 03:32:40;;;;;;;11.53;8.73;;;;;;;3.14;58.39;94411.03;5067641;28;20243;-74
2021/01/01 03:35:07;;;;;;;12.03;8.97;;;;;;;3.18;58.80;94412.31;5067292;28;20209;-76
2021/01/01 03:37:34;;;;;;;11.10;8.90;;;;;;;3.20;58.86;94399.44;5067551;28;20696;-75
2021/01/01 03:40:01;;;;;;;11.43;9.40;;;;;;;3.18;59.22;94397.03;5067652;28;20622;-75
2021/01/01 03:42:27;;;;;;;10.00;8.73;;;;;;;3.20;59.11;94397.69;5067187;28;20689;-75
2021/01/01 03:44:53;;;;;;;10.33;8.37;;;;;;;3.09;59.69;94390.38;5067250;28;20207;-74
2021/01/01 03:47:19;;;;;;;10.60;8.60;;;;;;;3.04;59.87;94385.00;5067112;28;20201;-74
2021/01/01 03:49:46;;;;;;;13.20;9.30;;;;;;;3.01;59.42;94382.75;5067536;28;20657;-76
2021/01/01 03:52:12;;;;;;;11.90;9.27;;;;;;;3.04;59.65;94385.00;5067438;28;20209;-74
2021/01/01 03:54:38;;;;;;;12.37;9.30;;;;;;;3.00;60.09;94384.50;5067700;28;20196;-75
2021/01/01 03:57:04;;;;;;;10.90;9.17;;;;;;;2.97;59.92;94387.34;5067391;28;20193;-75
2021/01/01 03:59:30;;;;;;;10.80;8.50;;;;;;;2.98;60.24;94388.94;5067916;28;20201;-75
2021/01/01 04:01:56;;;;;;;9.63;8.43;;;;;;;3.03;60.00;94391.81;5067449;28;20232;-75
2021/01/01 04:04:21;;;;;;;11.47;8.93;;;;;;;3.05;59.70;94396.75;5067363;28;20231;-75
2021/01/01 04:06:48;;;;;;;11.10;8.63;;;;;;;3.06;59.58;94411.84;5067663;28;20197;-74
2021/01/01 04:09:14;;;;;;;11.97;9.47;;;;;;;3.02;59.18;94409.78;5067060;28;20690;-75
2021/01/01 04:11:40;;;;;;;9.90;8.50;;;;;;;2.98;59.70;94409.28;5067188;28;20223;-74
2021/01/01 04:14:07;;;;;;;12.03;9.67;;;;;;;2.93;59.28;94405.63;5066863;28;20672;-75
2021/01/01 04:16:33;;;;;;;11.10;8.47;;;;;;;2.86;59.34;94409.78;5067135;28;20203;-75
2021/01/01 04:18:59;;;;;;;12.67;9.10;;;;;;;2.84;59.58;94407.38;5067066;28;20816;-75
2021/01/01 04:21:25;;;;;;;11.00;8.80;;;;;;;2.81;59.58;94407.69;5067447;28;20224;-75
2021/01/01 04:23:52;;;;;;;12.47;8.90;;;;;;;2.79;59.76;94404.53;5067016;28;20712;-76
2021/01/01 04:26:18;;;;;;;11.10;9.40;;;;;;;2.76;59.20;94410.69;5066815;28;20189;-75
2021/01/01 04:28:44;;;;;;;11.83;9.17;;;;;;;2.74;59.70;94409.28;5067572;28;20258;-75
2021/01/01 04:31:10;;;;;;;12.13;9.20;;;;;;;2.77;59.38;94409.75;5066543;28;20658;-75
2021/01/01 04:33:35;;;;;;;11.30;8.47;;;;;;;2.77;59.50;94408.97;5067427;28;20287;-75
2021/01/01 04:36:01;;;;;;;11.60;8.83;;;;;;;2.81;59.57;94406.91;5066531;28;20246;-75
2021/01/01 04:38:27;;;;;;;12.03;8.87;;;;;;;2.81;59.76;94412.00;5067656;28;20231;-75
2021/01/01 04:40:54;;;;;;;12.30;8.40;;;;;;;2.82;59.85;94413.56;5066764;28;20213;-75
2021/01/01 04:43:22;;;;;;;10.07;8.63;;;;;;;2.81;59.83;94420.41;5067182;28;20199;-76
2021/01/01 04:45:48;;;;;;;10.47;8.27;;;;;;;2.76;59.73;94420.06;5067153;28;20208;-75
2021/01/01 04:48:14;;;;;;;9.87;8.20;;;;;;;2.72;59.69;94423.88;5067268;28;20228;-75
2021/01/01 04:50:40;;;;;;;9.93;7.97;;;;;;;2.66;60.02;94422.78;5068814;28;20219;-75
2021/01/01 04:53:08;;;;;;;9.23;8.23;;;;;;;2.66;59.92;94425.31;5071425;28;20201;-76
2021/01/01 04:55:34;;;;;;;10.07;8.33;;;;;;;2.59;60.19;94426.09;5070122;28;20213;-75
2021/01/01 04:58:01;;;;;;;11.10;8.73;;;;;;;2.50;60.75;94420.22;5070631;28;20239;-75
2021/01/01 05:00:27;;;;;;;11.17;8.70;;;;;;;2.57;60.20;94425.44;5070183;28;20851;-74
2021/01/01 05:02:53;;;;;;;10.07;8.17;;;;;;;2.58;60.45;94420.22;5070616;28;20217;-74
2021/01/01 05:05:26;;;;;;;10.03;9.00;;;;;;;2.49;60.92;94416.09;5069847;28;20277;-75
2021/01/01 05:07:52;;;;;;;11.53;8.77;;;;;;;2.44;61.36;94418.28;5070341;28;20284;-75
2021/01/01 05:10:18;;;;;;;12.93;10.10;;;;;;;2.50;61.03;94416.88;5069601;28;20211;-76
2021/01/01 05:12:44;;;;;;;11.57;9.60;;;;;;;2.55;60.51;94417.97;5070361;28;20610;-73
2021/01/01 05:15:12;;;;;;;12.77;9.23;;;;;;;2.53;60.70;94424.16;5069648;28;20258;-74
2021/01/01 05:17:38;;;;;;;11.37;9.63;;;;;;;2.50;60.80;94424.50;5070265;28;20197;-75
2021/01/01 05:20:09;;;;;;;12.50;9.33;;;;;;;2.50;60.99;94429.59;5070255;28;20210;-74
2021/01/01 05:22:36;;;;;;;12.83;10.37;;;;;;;2.49;60.91;94430.53;5070350;28;20224;-75
2021/01/01 05:25:15;;;;;;;13.57;10.13;;;;;;;2.47;61.18;94425.59;5069829;28;20668;-76
2021/01/01 05:27:43;;;;;;;12.23;9.93;;;;;;;2.48;61.58;94434.81;5050115;28;20205;-75
2021/01/01 05:30:13;;;;;;;12.13;9.33;;;;;;;2.56;60.85;94434.03;5050437;28;20408;-75
2021/01/01 05:32:51;;;;;;;14.13;11.07;;;;;;;2.62;61.38;94433.41;5070096;28;20213;-76
2021/01/01 05:35:25;;;;;;;15.20;9.60;;;;;;;2.64;61.38;94432.31;5069543;28;20227;-76
2021/01/01 05:37:52;;;;;;;11.90;9.10;;;;;;;2.64;61.06;94427.22;5069551;28;20196;-76
2021/01/01 05:40:28;;;;;;;14.03;10.30;;;;;;;2.56;61.11;94439.09;5069445;28;20204;-76
2021/01/01 05:42:54;;;;;;;14.17;10.73;;;;;;;2.50;61.33;94434.66;5069614;28;20227;-76
2021/01/01 05:45:27;;;;;;;12.97;10.53;;;;;;;2.40;61.64;94443.19;5069232;28;20732;-74
2021/01/01 05:48:03;;;;;;;14.70;10.37;;;;;;;2.51;61.88;94441.31;5069103;28;20193;-75
2021/01/01 05:50:29;;;;;;;14.17;10.50;;;;;;;2.52;61.85;94446.22;5069460;28;20671;-75
2021/01/01 05:53:09;;;;;;;12.67;9.77;;;;;;;2.58;61.37;94448.16;5069905;28;20865;-74
2021/01/01 05:55:34;;;;;;;11.83;9.83;;;;;;;2.56;61.74;94441.63;5068686;28;20208;-76
2021/01/01 05:58:00;;;;;;;11.67;9.50;;;;;;;2.51;62.47;94443.84;5069665;28;20192;-77
2021/01/01 06:00:27;;;;;;;13.67;10.37;;;;;;;2.51;62.33;94446.38;5069065;28;20205;-75
2021/01/01 06:02:57;;;;;;;13.07;9.87;;;;;;;2.48;62.06;94451.81;5069332;28;20331;-75
2021/01/01 06:05:27;;;;;;;12.93;10.13;;;;;;;2.38;62.81;94451.91;5069081;28;20242;-75
2021/01/01 06:07:53;;;;;;;13.00;10.10;;;;;;;2.37;62.77;94460.47;5069785;28;20200;-76
2021/01/01 06:10:22;;;;;;;11.07;9.83;;;;;;;2.40;61.95;94453.34;5069465;28;20200;-76
2021/01/01 06:12:52;;;;;;;12.10;9.93;;;;;;;2.41;62.33;94462.56;5059439;28;20189;-75
2021/01/01 06:15:22;;;;;;;14.17;10.43;;;;;;;2.42;62.14;94460.81;5067690;28;20288;-75
2021/01/01 06:17:50;;;;;;;13.63;11.47;;;;;;;2.20;62.24;94466.44;5067831;28;20197;-75
2021/01/01 06:20:18;;;;;;;12.73;10.70;;;;;;;2.15;62.61;94463.56;5068379;28;20203;-74
2021/01/01 06:22:59;;;;;;;13.43;10.57;;;;;;;2.13;62.62;94471.34;5068738;28;20217;-75
2021/01/01 06:25:26;;;;;;;13.50;11.20;;;;;;;2.19;62.28;94485.97;5068321;28;20483;-77
2021/01/01 06:27:52;;;;;;;13.63;10.80;;;;;;;2.22;62.02;94495.81;5068466;28;20560;-75
2021/01/01 06:30:23;;;;;;;15.07;11.43;;;;;;;2.25;62.10;94493.00;5068836;28;20203;-77
2021/01/01 06:32:50;;;;;;;13.30;11.53;;;;;;;2.22;61.78;94498.38;5068625;28;20201;-76
2021/01/01 06:35:20;;;;;;;13.17;10.93;;;;;;;2.17;62.21;94497.22;5068254;28;20205;-77
2021/01/01 06:37:48;;;;;;;16.00;11.20;;;;;;;2.11;62.35;94506.25;5068356;28;20196;-77
2021/01/01 06:40:32;;;;;;;12.53;10.27;;;;;;;2.08;62.32;94507.34;5068431;28;20204;-77
2021/01/01 06:43:00;;;;;;;13.20;11.03;;;;;;;2.00;63.10;94521.72;5053909;28;20205;-77
2021/01/01 06:45:41;;;;;;;15.20;11.20;;;;;;;2.04;62.81;94535.72;5067362;28;20200;-76
2021/01/01 06:48:09;;;;;;;13.70;11.20;;;;;;;2.07;62.70;94526.06;5068073;28;20886;-75
2021/01/01 06:50:37;;;;;;;14.73;10.80;;;;;;;2.05;63.15;94527.97;5068369;28;20642;-76
2021/01/01 06:53:05;;;;;;;12.87;10.47;;;;;;;2.10;62.85;94521.66;5067792;28;20250;-74
2021/01/01 06:55:35;;;;;;;12.10;10.77;;;;;;;2.09;63.24;94541.16;5067452;28;20220;-76
2021/01/01 06:58:01;;;;;;;14.13;11.27;;;;;;;2.13;62.82;94536.53;5067471;28;20185;-76
2021/01/01 07:00:52;;;;;;;15.13;11.30;;;;;;;2.16;63.15;94537.03;5068133;28;20212;-76
2021/01/01 07:03:36;;;;;;;12.90;10.20;;;;;;;2.16;63.31;94531.97;5067839;28;20197;-76
2021/01/01 07:06:34;;;;;;;14.47;10.73;;;;;;;2.13;63.37;94537.34;5067747;28;20204;-77
2021/01/01 07:09:00;;;;;;;14.10;10.73;;;;;;;2.16;62.95;94538.78;5065749;28;20202;-75
2021/01/01 07:11:47;;;;;;;13.63;10.37;;;;;;;2.16;63.31;94543.88;5067691;28;20602;-76
2021/01/01 07:14:19;;;;;;;13.83;10.93;;;;;;;2.17;62.91;94535.31;5041644;28;20846;-76
2021/01/01 07:16:46;;;;;;;13.73;11.10;;;;;;;2.08;63.23;94544.63;5048026;28;20209;-76
2021/01/01 07:19:15;;;;;;;13.13;10.10;;;;;;;2.08;62.92;94545.44;5067496;28;20199;-74
2021/01/01 07:21:41;;;;;;;13.67;11.20;;;;;;;2.02;62.87;94550.31;5067511;28;20224;-76
2021/01/01 07:24:08;;;;;;;13.20;11.13;;;;;;;2.00;63.49;94544.56;5065422;28;20197;-75
2021/01/01 07:26:34;;;;;;;13.23;10.73;;;;;;;2.03;63.30;94546.81;5064498;28;20895;-75
2021/01/01 07:29:01;;;;;;;13.60;10.57;;;;;;;2.07;63.48;94546.38;5065554;28;20204;-77
2021/01/01 07:31:27;;;;;;;13.30;10.60;;;;;;;2.05;63.34;94547.47;5063173;28;20220;-76
2021/01/01 07:33:54;;;;;;;21.37;15.67;;;;;;;2.08;63.23;94540.34;5066406;28;20617;-76
2021/01/01 07:36:21;;;;;;;17.20;13.70;;;;;;;2.12;63.47;94556.06;5066351;28;21000;-76
2021/01/01 07:38:48;;;;;;;12.37;10.33;;;;;;;2.18;63.29;94550.38;5065960;28;20286;-76
2021/01/01 07:41:17;;;;;;;15.40;11.27;;;;;;;2.14;63.34;94556.72;5066410;28;20279;-76
2021/01/01 07:43:43;;;;;;;13.60;10.57;;;;;;;2.08;63.89;94557.31;5056849;28;20231;-76
2021/01/01 07:46:10;;;;;;;12.73;9.83;;;;;;;2.16;63.54;94556.56;5057896;28;20205;-76
2021/01/01 07:48:38;;;;;;;13.70;10.70;;;;;;;2.21;63.29;94564.53;5056734;28;20685;-77
2021/01/01 07:51:05;;;;;;;14.33;10.90;;;;;;;2.25;63.03;94566.63;5055933;28;20225;-76
2021/01/01 07:53:35;;;;;;;12.93;10.53;;;;;;;2.26;63.34;94568.22;5057348;28;20253;-76
2021/01/01 07:56:03;;;;;;;13.10;10.30;;;;;;;2.31;62.77;94573.63;5056950;28;20303;-74
2021/01/01 07:58:31;;;;;;;13.07;10.80;;;;;;;2.34;62.90;94575.88;5056967;28;20254;-76
2021/01/01 08:01:01;;;;;;;12.83;10.23;;;;;;;2.36;62.77;94578.25;5055635;28;20362;-76
2021/01/01 08:03:27;;;;;;;13.13;10.73;;;;;;;2.27;63.48;94576.63;5056085;28;20228;-75
2021/01/01 08:05:54;;;;;;;13.03;10.37;;;;;;;2.26;63.02;94582.66;5055637;28;20201;-76
2021/01/01 08:08:22;;;;;;;36.93;25.13;;;;;;;2.31;63.18;94588.84;5059242;28;20288;-76
2021/01/01 08:10:52;;;;;;;40.20;27.80;;;;;;;2.38;62.91;94594.94;5066780;28;20220;-76
2021/01/01 08:13:19;;;;;;;23.80;15.80;;;;;;;2.40;62.13;94589.72;5065920;28;20195;-76
2021/01/01 08:15:47;;;;;;;14.50;11.10;;;;;;;2.44;61.95;94585.94;5065576;28;20616;-76
2021/01/01 08:18:15;;;;;;;12.73;9.63;;;;;;;2.35;62.56;94582.53;5065591;28;20197;-76
2021/01/01 08:20:46;;;;;;;11.47;8.77;;;;;;;2.40;61.91;94585.44;5065978;28;20247;-74
2021/01/01 08:23:14;;;;;;;10.33;8.33;;;;;;;2.49;61.69;94582.94;5065367;28;20299;-75
2021/01/01 08:25:40;;;;;;;9.97;8.47;;;;;;;2.53;61.12;94584.19;5070074;28;20207;-76
2021/01/01 08:28:08;;;;;;;11.30;8.70;;;;;;;2.58;60.71;94577.72;5069734;28;20197;-76
2021/01/01 08:30:36;;;;;;;9.93;7.70;;;;;;;2.59;60.58;94581.06;5070281;28;20196;-75
2021/01/01 08:33:05;;;;;;;9.40;7.70;;;;;;;2.66;60.71;94584.59;5069223;28;20578;-76
2021/01/01 08:35:31;;;;;;;9.50;7.70;;;;;;;2.77;60.01;94586.84;5069708;28;20321;-75
2021/01/01 08:37:57;;;;;;;8.20;7.37;;;;;;;2.79;59.85;94587.50;5069779;28;20646;-76
2021/01/01 08:40:23;;;;;;;10.33;7.73;;;;;;;2.96;59.62;94594.22;5069562;28;20208;-76
2021/01/01 08:42:53;;;;;;;8.97;7.53;;;;;;;3.07;59.28;94596.50;5069271;28;20217;-76
2021/01/01 08:45:21;;;;;;;9.60;7.50;;;;;;;3.18;58.92;94587.78;5068880;28;20228;-75
2021/01/01 08:47:48;;;;;;;9.17;7.10;;;;;;;3.33;58.76;94588.75;5069224;28;20250;-74
2021/01/01 08:50:19;;;;;;;9.57;7.67;;;;;;;3.45;58.43;94602.78;5069262;28;20193;-76
2021/01/01 08:52:46;;;;;;;9.10;7.80;;;;;;;3.56;58.16;94596.56;5069268;28;20231;-76
2021/01/01 08:55:13;;;;;;;9.00;6.97;;;;;;;3.63;57.86;94596.75;5069122;28;20209;-76
2021/01/01 08:57:39;;;;;;;9.87;8.10;;;;;;;3.74;57.91;94601.50;5069212;28;20196;-76
2021/01/01 09:00:06;;;;;;;8.93;7.00;;;;;;;3.90;57.54;94598.16;5069159;28;20239;-74
2021/01/01 09:02:34;;;;;;;22.87;17.87;;;;;;;4.01;57.60;94601.19;5069027;28;20216;-77
2021/01/01 09:05:00;;;;;;;28.73;21.10;;;;;;;4.14;56.78;94610.88;5069169;28;20266;-76
2021/01/01 09:07:26;;;;;;;12.13;9.87;;;;;;;4.25;56.61;94614.84;5069418;28;20209;-76
2021/01/01 09:09:52;;;;;;;9.40;8.17;;;;;;;4.36;55.99;94617.06;5069509;28;20680;-76
2021/01/01 09:12:20;;;;;;;9.13;8.03;;;;;;;4.39;55.84;94620.09;5068860;28;20826;-76
2021/01/01 09:14:51;;;;;;;9.97;8.10;;;;;;;4.46;56.11;94626.13;5068349;28;20211;-75
2021/01/01 09:17:19;;;;;;;13.50;8.87;;;;;;;4.63;55.90;94623.53;5069342;28;20205;-76
2021/01/01 09:19:46;;;;;;;27.83;20.90;;;;;;;4.76;55.42;94624.63;5068522;28;20205;-76
2021/01/01 09:22:17;;;;;;;17.90;14.27;;;;;;;4.86;55.07;94632.06;5068582;28;20246;-76
2021/01/01 09:24:46;;;;;;;10.80;7.93;;;;;;;4.91;54.91;94623.91;5067246;28;20193;-76
2021/01/01 09:27:12;;;;;;;10.07;8.33;;;;;;;4.91;54.84;94622.16;5068262;28;20258;-76
2021/01/01 09:29:38;;;;;;;8.80;7.90;;;;;;;4.86;54.68;94637.97;5068615;28;20197;-76
2021/01/01 09:32:12;;;;;;;9.83;8.30;;;;;;;4.90;54.66;94635.88;5068997;28;20225;-77
2021/01/01 09:34:38;;;;;;;8.97;8.07;;;;;;;4.87;54.20;94641.31;5067888;28;20280;-76
2021/01/01 09:37:09;;;;;;;11.50;8.50;;;;;;;4.85;54.02;94649.13;5067774;28;20763;-76
2021/01/01 09:39:35;;;;;;;10.33;7.70;;;;;;;4.89;54.62;94652.13;5068580;28;20600;-76
2021/01/01 09:42:01;;;;;;;8.97;7.60;;;;;;;4.75;53.93;94655.38;5068471;28;20369;-73
2021/01/01 09:44:27;;;;;;;8.50;7.17;;;;;;;4.67;54.78;94657.94;5068192;28;20848;-77
2021/01/01 09:46:53;;;;;;;8.23;7.27;;;;;;;4.58;54.73;94669.91;5067901;28;20201;-77
2021/01/01 09:49:20;;;;;;;9.57;6.90;;;;;;;4.48;54.96;94666.72;5068786;28;20207;-74
2021/01/01 09:51:46;;;;;;;8.00;6.90;;;;;;;4.34;55.63;94670.72;5067825;28;20763;-76
2021/01/01 09:54:12;;;;;;;8.40;6.93;;;;;;;4.40;55.60;94671.84;5067260;28;20189;-74
2021/01/01 09:56:38;;;;;;;9.03;7.30;;;;;;;4.42;55.71;94678.38;5068440;28;20246;-76
2021/01/01 09:59:05;;;;;;;10.93;7.30;;;;;;;4.45;56.08;94672.16;5061444;28;20197;-75
2021/01/01 10:01:31;;;;;;;7.63;6.83;;;;;;;4.44;56.60;94683.28;5068129;28;20684;-76
2021/01/01 10:03:58;;;;;;;8.10;7.30;;;;;;;4.57;56.54;94672.63;5066696;28;20227;-76
2021/01/01 10:06:24;;;;;;;12.10;9.03;;;;;;;4.60;56.46;94672.31;5068059;28;20211;-76
2021/01/01 10:08:50;;;;;;;9.60;7.93;;;;;;;4.64;61.35;94674.34;5067416;28;20270;-77
2021/01/01 10:11:17;;;;;;;9.00;7.27;;;;;;;4.74;57.34;94684.38;5069126;28;20220;-77
2021/01/01 10:13:43;;;;;;;8.17;6.83;;;;;;;4.78;57.21;94685.66;5068813;28;20212;-78
2021/01/01 10:16:11;;;;;;;8.30;7.20;;;;;;;4.80;57.22;94681.19;5068952;28;20238;-78
2021/01/01 10:18:38;;;;;;;9.40;7.30;;;;;;;4.70;57.69;94688.19;5067564;28;20192;-75
2021/01/01 10:21:04;;;;;;;8.80;7.17;;;;;;;4.73;57.86;94687.88;5067513;28;20219;-77
2021/01/01 10:23:30;;;;;;;8.87;7.37;;;;;;;4.62;58.12;94686.44;5066947;28;20270;-77
2021/01/01 10:25:56;;;;;;;8.80;7.37;;;;;;;4.68;58.31;94682.47;5067219;28;20201;-76
2021/01/01 10:28:23;;;;;;;9.30;7.13;;;;;;;4.73;58.42;94680.22;5067542;28;20301;-76
2021/01/01 10:30:49;;;;;;;8.27;7.30;;;;;;;4.77;58.26;94673.84;5067560;28;20221;-77
2021/01/01 10:33:15;;;;;;;9.10;7.03;;;;;;;4.73;59.01;94677.69;5066782;28;20869;-76
2021/01/01 10:35:41;;;;;;;7.67;6.87;;;;;;;4.77;58.56;94664.44;5067030;28;20201;-75
2021/01/01 10:38:07;;;;;;;7.70;6.70;;;;;;;4.84;58.67;94665.38;5067101;28;20200;-75
2021/01/01 10:40:33;;;;;;;7.77;6.47;;;;;;;4.97;58.29;94661.53;5067078;28;20617;-73
2021/01/01 10:42:59;;;;;;;9.23;6.63;;;;;;;5.02;58.80;94667.69;5066690;28;20274;-75
2021/01/01 10:45:26;;;;;;;7.63;6.43;;;;;;;5.11;58.18;94666.72;5066610;28;20196;-74
2021/01/01 10:47:52;;;;;;;11.00;6.93;;;;;;;5.19;57.97;94661.59;5051842;28;20858;-75
2021/01/01 10:50:20;;;;;;;7.07;6.37;;;;;;;5.22;57.79;94661.25;5067109;28;20200;-76
2021/01/01 10:52:46;;;;;;;27.10;20.40;;;;;;;5.28;58.13;94648.78;5066860;28;20974;-76
2021/01/01 10:55:13;;;;;;;28.07;20.67;;;;;;;5.45;58.21;94650.28;5066693;28;20205;-75
2021/01/01 10:57:39;;;;;;;13.10;10.33;;;;;;;5.50;58.59;94648.84;5066937;28;20775;-75
2021/01/01 11:00:06;;;;;;;8.30;6.80;;;;;;;5.60;58.31;94648.59;5067505;28;20204;-74
2021/01/01 11:02:33;;;;;;;6.30;5.70;;;;;;;5.64;58.38;94637.09;5066108;28;20220;-75
2021/01/01 11:04:59;;;;;;;7.93;5.70;;;;;;;5.75;58.61;94631.63;5066162;28;20200;-75
2021/01/01 11:07:25;;;;;;;6.27;5.30;;;;;;;5.84;59.79;94628.03;5067134;28;20204;-75
2021/01/01 11:09:51;;;;;;;7.03;6.00;;;;;;;6.06;59.58;94634.13;5066785;28;20227;-76
2021/01/01 11:12:17;;;;;;;5.47;4.97;;;;;;;6.11;60.33;94628.50;5066318;28;20296;-75
2021/01/01 11:15:02;;;;;;;5.60;5.00;;;;;;;6.12;61.33;94627.53;5066272;28;20197;-75
2021/01/01 12:21:21;;;;;;;9.87;7.00;;;;;;;7.13;59.23;94598.81;5073194;28;20637;-74
2021/01/01 12:23:50;;;;;;;7.80;6.57;;;;;;;6.99;59.47;94595.31;5073155;28;20220;-75
2021/01/01 12:26:17;;;;;;;8.10;6.40;;;;;;;6.95;59.75;94601.75;5073170;28;20200;-75
2021/01/01 12:28:45;;;;;;;8.27;6.90;;;;;;;6.94;60.09;94597.59;5073564;28;20232;-75
2021/01/01 12:31:12;;;;;;;8.43;6.67;;;;;;;6.90;60.22;94594.63;5073145;28;20262;-75
2021/01/01 12:33:41;;;;;;;11.90;6.80;;;;;;;6.84;60.71;94592.75;5073638;28;20242;-75
2021/01/01 12:36:07;;;;;;;7.70;6.63;;;;;;;6.79;60.76;94589.16;5073196;28;21079;-74